Time;durP1;ratioP1;P1;durP2;ratioP2;P2;SDS_P1;SDS_P2;PMS_P1;PMS_P2;Temp;Humidity;BMP_temperature;BMP_pressure;BME280_temperature;BME280_humidity;BME280_pressure;Samples;Min_cycle;Max_cycle;Signal;HPM_P1;HPM_P2
2021/03/20 00:01:53;;;;;;;15.23;9.70;;;3.00;99.90;;;;;;5039920;28;20247;-75
2021/03/20 00:04:20;;;;;;;12.23;9.87;;;3.10;99.90;;;;;;5040559;28;20216;-74
2021/03/20 00:06:49;;;;;;;18.30;10.63;;;2.90;99.90;;;;;;5039111;28;20287;-74
2021/03/20 00:09:21;;;;;;;18.20;10.70;;;3.00;99.90;;;;;;5038984;28;20204;-75
2021/03/20 00:11:49;;;;;;;15.13;9.27;;;2.90;99.90;;;;;;5039766;28;20227;-75
2021/03/20 00:14:18;;;;;;;16.17;9.97;;;2.90;99.90;;;;;;5039667;28;20203;-75
2021/03/20 00:16:45;;;;;;;17.40;12.27;;;2.90;99.90;;;;;;5038332;28;20216;-76
2021/03/20 00:19:13;;;;;;;19.77;10.87;;;2.80;99.90;;;;;;5038829;28;20196;-75
2021/03/20 00:21:39;;;;;;;25.97;12.07;;;2.80;99.90;;;;;;5040792;28;20690;-74
2021/03/20 00:24:06;;;;;;;15.43;10.50;;;2.80;99.90;;;;;;5038369;28;20800;-75
2021/03/20 00:26:34;;;;;;;18.43;11.57;;;2.70;99.90;;;;;;5038739;28;20213;-75
2021/03/20 00:29:01;;;;;;;18.87;12.00;;;2.70;99.90;;;;;;5038902;28;20204;-75
2021/03/20 00:31:27;;;;;;;17.93;11.90;;;2.80;99.90;;;;;;5039076;28;20234;-75
2021/03/20 00:33:53;;;;;;;24.67;13.53;;;2.80;99.90;;;;;;5040002;28;20214;-75
2021/03/20 00:36:21;;;;;;;18.77;12.40;;;2.90;99.90;;;;;;5039319;28;20200;-75
2021/03/20 00:38:48;;;;;;;22.03;13.90;;;3.00;99.90;;;;;;5040308;28;20214;-75
2021/03/20 00:41:15;;;;;;;22.23;13.27;;;3.10;99.90;;;;;;5040221;28;20215;-77
2021/03/20 00:43:42;;;;;;;23.67;14.13;;;3.20;99.90;;;;;;5039373;28;20208;-75
2021/03/20 00:46:10;;;;;;;22.07;14.93;;;3.30;99.90;;;;;;5038681;28;20207;-77
2021/03/20 00:48:39;;;;;;;26.20;15.33;;;3.30;99.90;;;;;;5038329;28;20240;-76
2021/03/20 00:51:06;;;;;;;23.57;14.43;;;3.40;99.90;;;;;;5037973;28;20628;-77
2021/03/20 00:53:33;;;;;;;26.63;14.87;;;3.50;99.90;;;;;;5039448;28;20286;-76
2021/03/20 00:56:00;;;;;;;20.63;14.77;;;3.60;99.90;;;;;;5039397;28;20209;-76
2021/03/20 00:58:33;;;;;;;22.37;14.23;;;3.50;99.90;;;;;;5038251;28;20208;-76
2021/03/20 01:01:04;;;;;;;24.00;13.83;;;3.50;99.90;;;;;;5036357;28;20856;-78
2021/03/20 01:03:31;;;;;;;24.20;13.40;;;3.20;99.90;;;;;;5033006;28;20199;-76
2021/03/20 01:05:58;;;;;;;25.60;15.47;;;3.30;99.90;;;;;;5039736;28;20258;-76
2021/03/20 01:08:24;;;;;;;25.47;16.07;;;3.20;99.90;;;;;;5039126;28;20207;-77
2021/03/20 01:10:52;;;;;;;20.50;13.83;;;3.20;99.90;;;;;;5038398;28;21058;-77
2021/03/20 01:13:19;;;;;;;23.77;14.23;;;3.10;99.90;;;;;;5038091;28;20655;-77
2021/03/20 01:15:46;;;;;;;22.50;13.80;;;3.10;99.90;;;;;;5038323;28;20204;-76
2021/03/20 01:18:14;;;;;;;23.53;14.40;;;3.10;99.90;;;;;;5038182;28;20213;-76
2021/03/20 01:20:42;;;;;;;24.93;16.60;;;3.00;99.90;;;;;;5038500;28;20224;-77
2021/03/20 01:23:09;;;;;;;20.70;14.87;;;3.00;99.90;;;;;;5038339;28;20213;-76
2021/03/20 01:25:35;;;;;;;22.60;16.00;;;3.00;99.90;;;;;;5038304;28;20204;-77
2021/03/20 01:28:01;;;;;;;21.23;14.57;;;2.90;99.90;;;;;;5038991;28;20208;-77
2021/03/20 01:30:30;;;;;;;25.37;15.13;;;2.90;99.90;;;;;;5038009;28;20204;-78
2021/03/20 01:32:57;;;;;;;23.63;15.43;;;2.90;99.90;;;;;;5037834;28;20220;-76
2021/03/20 01:35:24;;;;;;;21.57;14.97;;;2.90;99.90;;;;;;5037208;28;20208;-76
2021/03/20 01:37:51;;;;;;;22.27;15.60;;;2.70;99.90;;;;;;5038140;28;20216;-77
2021/03/20 01:40:20;;;;;;;24.60;15.53;;;2.80;99.90;;;;;;5038174;28;20204;-76
2021/03/20 01:42:46;;;;;;;21.27;15.37;;;2.80;99.90;;;;;;5038176;28;20207;-77
2021/03/20 01:45:16;;;;;;;22.73;14.87;;;2.80;99.90;;;;;;5038262;28;20208;-77
2021/03/20 01:48:06;;;;;;;21.87;14.20;;;2.80;99.90;;;;;;5038951;28;20215;-76
2021/03/20 01:50:37;;;;;;;19.43;13.77;;;2.70;99.90;;;;;;5038611;28;20196;-76
2021/03/20 01:53:14;;;;;;;22.63;14.73;;;2.80;99.90;;;;;;5038514;28;20209;-77
2021/03/20 01:55:40;;;;;;;19.33;14.40;;;2.60;99.90;;;;;;5038051;28;20295;-76
2021/03/20 01:58:07;;;;;;;23.97;14.37;;;2.60;99.90;;;;;;5037182;28;20571;-77
2021/03/20 02:00:36;;;;;;;24.43;14.73;;;2.50;99.90;;;;;;5037360;28;20196;-77
2021/03/20 02:03:06;;;;;;;26.77;14.80;;;2.50;99.90;;;;;;5037543;28;20200;-77
2021/03/20 02:05:34;;;;;;;24.53;15.07;;;2.50;99.90;;;;;;5037887;28;20214;-77
2021/03/20 02:08:03;;;;;;;21.03;14.30;;;2.40;99.90;;;;;;5036602;28;20200;-77
2021/03/20 02:10:32;;;;;;;26.30;15.03;;;2.30;99.90;;;;;;5037155;28;20206;-76
2021/03/20 02:13:06;;;;;;;20.73;14.40;;;2.40;99.90;;;;;;5037326;28;20208;-77
2021/03/20 02:15:37;;;;;;;20.23;14.73;;;2.20;99.90;;;;;;5037781;28;20241;-76
2021/03/20 02:18:09;;;;;;;20.60;14.07;;;2.20;99.90;;;;;;5038601;28;20205;-77
2021/03/20 02:20:57;;;;;;;22.80;16.43;;;2.10;99.90;;;;;;5038413;28;20192;-77
2021/03/20 02:24:07;;;;;;;21.97;16.13;;;2.00;99.90;;;;;;5037647;28;20192;-77
2021/03/20 02:27:09;;;;;;;26.57;16.57;;;2.10;99.90;;;;;;5038156;28;20199;-76
2021/03/20 02:30:06;;;;;;;26.40;16.47;;;2.10;99.90;;;;;;5008642;28;20217;-76
2021/03/20 02:32:42;;;;;;;23.63;17.47;;;2.10;99.90;;;;;;5038199;28;20290;-76
2021/03/20 02:35:17;;;;;;;24.73;16.23;;;2.10;99.90;;;;;;5037941;28;20193;-76
2021/03/20 02:37:51;;;;;;;29.67;17.03;;;2.10;99.90;;;;;;5036827;28;20203;-76
2021/03/20 02:40:26;;;;;;;30.07;17.43;;;2.20;99.90;;;;;;5036747;28;20210;-77
2021/03/20 02:42:58;;;;;;;25.80;17.70;;;2.00;99.90;;;;;;5038144;28;20207;-76
2021/03/20 02:45:31;;;;;;;23.00;16.33;;;2.00;99.90;;;;;;5037845;28;20201;-76
2021/03/20 02:48:06;;;;;;;26.60;17.17;;;1.90;99.90;;;;;;5037330;28;20203;-76
2021/03/20 02:50:38;;;;;;;24.50;17.53;;;1.90;99.90;;;;;;5036851;28;20199;-76
2021/03/20 02:53:11;;;;;;;23.10;16.80;;;1.90;99.90;;;;;;5036779;28;20641;-77
2021/03/20 02:55:43;;;;;;;22.23;16.13;;;1.80;99.90;;;;;;5038007;28;20195;-76
2021/03/20 02:58:13;;;;;;;24.60;17.17;;;1.80;99.90;;;;;;5037245;28;20615;-77
2021/03/20 03:00:44;;;;;;;26.73;16.40;;;1.80;99.90;;;;;;5038607;28;20200;-76
2021/03/20 03:03:13;;;;;;;26.07;17.60;;;1.80;99.90;;;;;;5037068;28;20209;-78
2021/03/20 03:05:45;;;;;;;27.80;18.03;;;1.70;99.90;;;;;;5037218;28;20205;-77
2021/03/20 03:08:15;;;;;;;26.57;17.33;;;1.60;99.90;;;;;;5038420;28;20204;-78
2021/03/20 03:10:47;;;;;;;27.63;17.80;;;1.70;99.90;;;;;;5036206;28;20651;-77
2021/03/20 03:13:19;;;;;;;24.47;16.67;;;1.70;99.90;;;;;;5036509;28;20211;-77
2021/03/20 03:15:51;;;;;;;28.77;19.40;;;1.60;99.90;;;;;;5036524;28;20303;-76
2021/03/20 03:18:24;;;;;;;28.70;17.63;;;1.70;99.90;;;;;;5035935;28;20196;-78
2021/03/20 03:20:55;;;;;;;25.33;18.43;;;1.50;99.90;;;;;;5037489;28;20282;-80
2021/03/20 03:23:24;;;;;;;25.93;17.50;;;1.40;99.90;;;;;;5036388;28;20191;-77
2021/03/20 03:25:56;;;;;;;24.37;17.83;;;1.50;99.90;;;;;;5036741;28;20619;-78
2021/03/20 03:28:27;;;;;;;25.50;17.70;;;1.30;99.90;;;;;;5036493;28;20207;-77
2021/03/20 03:30:55;;;;;;;28.50;17.90;;;1.40;99.90;;;;;;5036738;28;20204;-77
2021/03/20 03:33:27;;;;;;;25.13;18.10;;;1.40;99.90;;;;;;5036767;28;20780;-78
2021/03/20 03:35:58;;;;;;;28.33;18.57;;;1.50;99.90;;;;;;5040547;28;20298;-78
2021/03/20 03:38:32;;;;;;;25.17;18.77;;;1.40;99.90;;;;;;5041074;28;20220;-76
2021/03/20 03:41:02;;;;;;;27.97;19.23;;;1.50;99.90;;;;;;5041072;28;20298;-77
2021/03/20 03:43:29;;;;;;;28.33;18.90;;;1.30;99.90;;;;;;5040390;28;20204;-78
2021/03/20 03:45:55;;;;;;;29.83;17.97;;;1.30;99.90;;;;;;5040567;28;20203;-76
2021/03/20 03:48:24;;;;;;;32.63;17.97;;;1.30;99.90;;;;;;5039515;28;20287;-77
2021/03/20 03:50:51;;;;;;;24.53;17.37;;;1.30;99.90;;;;;;5040737;28;20257;-77
2021/03/20 03:53:23;;;;;;;27.80;18.60;;;1.30;99.90;;;;;;5039068;28;20323;-77
2021/03/20 03:55:56;;;;;;;25.90;18.37;;;1.30;99.90;;;;;;5040266;28;20196;-76
2021/03/20 03:58:48;;;;;;;31.50;21.23;;;1.20;99.90;;;;;;5039521;28;20196;-77
2021/03/20 04:01:27;;;;;;;28.67;19.30;;;1.20;99.90;;;;;;5039248;28;20285;-76
2021/03/20 04:04:02;;;;;;;26.27;19.27;;;1.20;99.90;;;;;;5040416;28;20196;-77
2021/03/20 04:06:54;;;;;;;30.13;19.43;;;1.20;99.90;;;;;;5040151;28;20199;-76
2021/03/20 04:09:41;;;;;;;32.80;20.80;;;1.20;99.90;;;;;;5039871;28;20204;-76
2021/03/20 04:12:15;;;;;;;29.83;20.20;;;1.20;99.90;;;;;;5040214;28;20278;-77
2021/03/20 04:14:50;;;;;;;27.03;19.47;;;1.20;99.90;;;;;;5040091;28;20202;-77
2021/03/20 04:17:23;;;;;;;27.63;19.17;;;1.20;99.90;;;;;;5040438;28;20198;-77
2021/03/20 04:20:00;;;;;;;31.17;19.97;;;1.20;99.90;;;;;;5040295;28;20287;-78
2021/03/20 04:22:32;;;;;;;26.80;19.57;;;1.10;99.90;;;;;;5040293;28;20212;-75
2021/03/20 04:25:05;;;;;;;29.57;19.97;;;1.10;99.90;;;;;;5040163;28;20205;-77
2021/03/20 04:27:36;;;;;;;27.57;20.17;;;1.10;99.90;;;;;;5039352;28;20204;-77
2021/03/20 04:30:08;;;;;;;33.00;20.90;;;1.10;99.90;;;;;;5039420;28;20227;-76
2021/03/20 04:32:41;;;;;;;34.43;20.73;;;1.10;99.90;;;;;;5039521;28;20215;-77
2021/03/20 04:35:12;;;;;;;33.60;21.50;;;1.00;99.90;;;;;;5039566;28;20210;-76
2021/03/20 04:37:43;;;;;;;33.30;22.27;;;1.10;99.90;;;;;;5039808;28;20226;-76
2021/03/20 04:40:26;;;;;;;39.77;23.00;;;0.90;99.90;;;;;;5039038;28;20209;-76
2021/03/20 04:42:53;;;;;;;31.10;21.53;;;1.10;99.90;;;;;;5039060;28;20223;-78
2021/03/20 04:45:28;;;;;;;30.40;21.03;;;1.00;99.90;;;;;;5038728;28;20221;-77
2021/03/20 04:47:57;;;;;;;32.90;21.70;;;1.10;99.90;;;;;;5038380;28;20337;-76
2021/03/20 04:50:27;;;;;;;32.70;22.13;;;1.00;99.90;;;;;;5039669;28;20203;-78
2021/03/20 04:52:57;;;;;;;37.73;23.47;;;0.90;99.90;;;;;;5038013;28;20211;-77
2021/03/20 04:55:23;;;;;;;37.80;23.30;;;1.00;99.90;;;;;;5038209;28;20204;-76
2021/03/20 04:57:54;;;;;;;34.10;22.73;;;0.90;99.90;;;;;;5040066;28;20204;-75
2021/03/20 05:00:26;;;;;;;36.23;23.20;;;0.90;99.90;;;;;;5040274;28;20203;-77
2021/03/20 05:02:58;;;;;;;36.17;22.93;;;0.80;99.90;;;;;;5040228;28;20260;-78
2021/03/20 05:05:31;;;;;;;33.53;22.27;;;0.90;99.90;;;;;;5041092;28;20215;-76
2021/03/20 05:08:01;;;;;;;32.87;23.30;;;0.90;99.90;;;;;;5039424;28;20199;-76
2021/03/20 05:10:32;;;;;;;34.97;23.57;;;0.80;99.90;;;;;;5038725;28;20211;-77
2021/03/20 05:13:01;;;;;;;31.67;22.33;;;0.90;99.90;;;;;;5037872;28;20287;-77
2021/03/20 05:15:30;;;;;;;38.00;23.90;;;0.80;99.90;;;;;;5039824;28;20285;-77
2021/03/20 05:17:56;;;;;;;33.83;22.60;;;0.80;99.90;;;;;;5038398;28;20706;-77
2021/03/20 05:20:24;;;;;;;36.17;23.60;;;0.80;99.90;;;;;;5038950;28;20872;-79
2021/03/20 05:22:51;;;;;;;42.17;26.17;;;0.80;99.90;;;;;;5038513;28;20552;-76
2021/03/20 05:25:21;;;;;;;37.97;24.57;;;0.80;99.90;;;;;;5038146;28;20261;-76
2021/03/20 05:27:47;;;;;;;33.70;23.27;;;0.90;99.90;;;;;;5038836;28;20200;-76
2021/03/20 05:30:15;;;;;;;41.10;26.77;;;0.80;99.90;;;;;;5038101;28;20647;-75
2021/03/20 05:32:42;;;;;;;38.30;24.53;;;0.80;99.90;;;;;;5039224;28;20211;-76
2021/03/20 05:35:18;;;;;;;38.07;25.17;;;0.80;99.90;;;;;;5038817;28;20219;-77
2021/03/20 05:37:44;;;;;;;37.93;24.20;;;0.80;99.90;;;;;;5038579;28;20651;-77
2021/03/20 05:40:20;;;;;;;42.93;26.13;;;0.80;99.90;;;;;;5038403;28;20266;-76
2021/03/20 05:43:06;;;;;;;40.40;27.07;;;0.70;99.90;;;;;;5038806;28;20223;-76
2021/03/20 05:45:37;;;;;;;46.10;25.77;;;0.70;99.90;;;;;;5037657;28;20207;-76
2021/03/20 05:48:11;;;;;;;44.07;26.90;;;0.70;99.90;;;;;;5037974;28;20324;-76
2021/03/20 05:51:06;;;;;;;37.00;25.93;;;0.70;99.90;;;;;;5036888;28;20192;-77
2021/03/20 05:53:49;;;;;;;39.93;27.57;;;0.70;99.90;;;;;;5011793;28;20208;-76
2021/03/20 05:56:23;;;;;;;35.97;25.70;;;0.60;99.90;;;;;;5037487;28;20295;-76
2021/03/20 05:59:08;;;;;;;41.53;24.90;;;0.70;99.90;;;;;;5037466;28;20205;-76
2021/03/20 06:01:43;;;;;;;39.87;26.67;;;0.70;99.90;;;;;;5037456;28;20212;-76
2021/03/20 06:04:32;;;;;;;46.77;26.57;;;0.80;99.90;;;;;;5037738;28;20199;-76
2021/03/20 06:07:27;;;;;;;45.03;26.37;;;0.70;99.90;;;;;;5037329;28;20205;-76
2021/03/20 06:10:06;;;;;;;44.57;26.30;;;0.70;99.90;;;;;;5028185;28;20208;-78
2021/03/20 06:12:50;;;;;;;44.57;28.43;;;0.70;99.90;;;;;;5038453;28;20203;-77
2021/03/20 06:15:33;;;;;;;45.23;28.03;;;0.70;99.90;;;;;;5037633;28;20556;-76
2021/03/20 06:18:17;;;;;;;41.13;26.77;;;0.70;99.90;;;;;;5038289;28;20647;-77
2021/03/20 06:20:50;;;;;;;49.00;29.43;;;0.90;99.90;;;;;;5038342;28;20200;-79
2021/03/20 06:23:41;;;;;;;44.10;28.33;;;1.00;99.90;;;;;;5036524;28;20196;-77
2021/03/20 06:26:14;;;;;;;46.57;28.73;;;1.00;99.90;;;;;;5036599;28;20225;-77
2021/03/20 06:28:47;;;;;;;48.77;30.90;;;1.10;99.90;;;;;;5037858;28;20204;-77
2021/03/20 06:31:20;;;;;;;44.83;30.40;;;1.30;99.90;;;;;;5037650;28;20338;-78
2021/03/20 06:33:52;;;;;;;46.97;30.67;;;1.40;99.90;;;;;;5036830;28;20200;-77
2021/03/20 06:36:24;;;;;;;46.63;29.87;;;1.50;99.90;;;;;;5037311;28;20300;-78
2021/03/20 06:38:59;;;;;;;51.47;30.80;;;1.90;99.90;;;;;;5037877;28;20213;-76
2021/03/20 06:41:33;;;;;;;46.17;30.13;;;2.00;99.90;;;;;;5037031;28;20223;-78
2021/03/20 06:44:05;;;;;;;36.37;27.30;;;2.10;99.90;;;;;;5037484;28;20256;-77
2021/03/20 06:46:34;;;;;;;41.33;27.70;;;2.10;99.90;;;;;;5037062;28;20651;-78
2021/03/20 06:49:01;;;;;;;36.43;25.90;;;2.20;99.90;;;;;;5037755;28;20222;-76
2021/03/20 06:51:28;;;;;;;34.47;25.87;;;2.30;99.90;;;;;;5037280;28;20682;-78
2021/03/20 06:53:59;;;;;;;40.53;25.73;;;2.40;99.90;;;;;;5037633;28;20199;-77
2021/03/20 06:56:29;;;;;;;35.93;25.27;;;2.60;99.90;;;;;;5036183;28;20278;-77
2021/03/20 06:58:57;;;;;;;34.37;24.80;;;2.50;99.90;;;;;;5036583;28;20248;-77
2021/03/20 07:01:38;;;;;;;35.37;24.30;;;2.70;99.90;;;;;;5035792;28;20236;-76
2021/03/20 07:04:43;;;;;;;28.23;21.83;;;2.90;99.90;;;;;;5038707;28;20191;-76
2021/03/20 07:07:32;;;;;;;27.83;21.77;;;2.90;99.90;;;;;;5037167;28;20204;-77
2021/03/20 07:10:00;;;;;;;30.10;21.83;;;3.10;99.90;;;;;;5039215;28;20242;-76
2021/03/20 07:12:27;;;;;;;30.30;21.23;;;3.20;99.90;;;;;;5040424;28;20728;-77
2021/03/20 07:14:55;;;;;;;28.97;21.80;;;3.60;99.90;;;;;;5040204;28;20684;-76
2021/03/20 07:17:32;;;;;;;24.90;19.83;;;4.10;99.90;;;;;;5040834;28;20199;-76
2021/03/20 07:20:01;;;;;;;24.27;19.30;;;4.70;99.90;;;;;;5041540;28;20199;-75
2021/03/20 07:22:32;;;;;;;20.50;17.67;;;5.10;99.90;;;;;;5041149;28;20232;-76
2021/03/20 07:25:00;;;;;;;18.37;15.77;;;5.50;99.90;;;;;;5041436;28;20210;-76
2021/03/20 07:27:34;;;;;;;20.43;16.57;;;5.70;99.90;;;;;;5041266;28;20207;-77
2021/03/20 07:30:06;;;;;;;20.47;16.23;;;6.10;99.90;;;;;;5041587;28;20198;-76
2021/03/20 07:32:36;;;;;;;17.83;15.60;;;6.30;99.90;;;;;;5040277;28;20211;-77
2021/03/20 07:35:30;;;;;;;16.97;15.13;;;6.70;99.90;;;;;;5039632;28;20196;-76
2021/03/20 07:38:18;;;;;;;16.87;15.17;;;6.90;99.90;;;;;;5039689;28;20286;-77
2021/03/20 07:40:45;;;;;;;20.07;14.73;;;7.10;99.90;;;;;;5040915;28;21505;-76
2021/03/20 07:43:15;;;;;;;17.40;14.77;;;7.10;99.90;;;;;;5041074;28;20228;-77
2021/03/20 07:45:45;;;;;;;17.07;15.10;;;7.10;99.90;;;;;;5040953;28;20226;-76
2021/03/20 07:48:26;;;;;;;17.53;15.10;;;7.10;99.90;;;;;;5040988;28;20211;-76
2021/03/20 07:51:03;;;;;;;15.17;13.57;;;7.00;99.90;;;;;;5041314;28;20271;-77
2021/03/20 07:53:30;;;;;;;15.37;13.80;;;7.70;99.90;;;;;;5040459;28;21443;-77
2021/03/20 07:56:06;;;;;;;17.33;14.80;;;8.10;99.90;;;;;;5040583;28;20230;-76
2021/03/20 07:58:40;;;;;;;16.67;13.57;;;8.10;99.90;;;;;;5039325;28;20653;-78
2021/03/20 08:01:11;;;;;;;15.93;14.07;;;8.40;99.90;;;;;;5040655;28;20211;-77
2021/03/20 08:03:53;;;;;;;15.27;13.70;;;8.50;99.90;;;;;;5040502;28;20195;-76
2021/03/20 08:06:21;;;;;;;15.10;13.47;;;9.00;99.90;;;;;;5039847;28;20291;-76
2021/03/20 08:08:47;;;;;;;16.40;14.20;;;8.80;99.90;;;;;;5038593;28;20211;-76
2021/03/20 08:11:30;;;;;;;15.23;13.47;;;8.70;99.90;;;;;;5039313;28;20554;-76
2021/03/20 08:14:02;;;;;;;17.45;13.63;;;8.70;99.90;;;;;;5039897;28;20193;-76
2021/03/20 08:16:29;;;;;;;15.07;13.50;;;9.10;99.90;;;;;;5038973;28;20864;-76
2021/03/20 08:18:58;;;;;;;18.33;13.70;;;9.40;99.90;;;;;;5039879;28;20203;-78
2021/03/20 08:21:56;;;;;;;13.68;12.35;;;9.90;99.90;;;;;;5039100;28;20220;-76
2021/03/20 08:24:39;;;;;;;16.70;14.02;;;10.10;99.90;;;;;;5039305;28;20778;-80
2021/03/20 08:27:13;;;;;;;15.02;13.35;;;10.20;99.90;;;;;;5040190;28;20215;-76
2021/03/20 08:30:25;;;;;;;13.77;12.32;;;10.20;99.90;;;;;;5040133;28;20299;-75
2021/03/20 08:33:26;;;;;;;15.10;12.23;;;10.80;99.90;;;;;;4971602;28;20206;-76
2021/03/20 08:36:05;;;;;;;14.57;12.63;;;10.80;99.90;;;;;;4968502;28;20611;-75
2021/03/20 08:39:00;;;;;;;16.67;13.32;;;11.20;99.90;;;;;;5022357;28;20203;-76
2021/03/20 08:41:33;;;;;;;14.10;12.40;;;10.70;99.90;;;;;;5045728;28;20769;-77
2021/03/20 08:44:37;;;;;;;13.18;11.88;;;11.00;99.90;;;;;;5046830;28;20667;-77
2021/03/20 08:47:24;;;;;;;15.05;12.55;;;11.50;99.90;;;;;;5051262;28;20284;-76
2021/03/20 08:50:07;;;;;;;14.02;12.55;;;10.90;99.90;;;;;;5054562;28;20199;-76
2021/03/20 08:52:41;;;;;;;15.55;12.27;;;11.10;99.90;;;;;;5042467;28;20271;-76
2021/03/20 08:55:40;;;;;;;14.02;12.52;;;11.30;99.90;;;;;;5054295;28;20200;-76
2021/03/20 08:58:18;;;;;;;13.93;11.73;;;11.70;99.90;;;;;;5036895;28;20204;-76
2021/03/20 09:00:50;;;;;;;14.88;13.25;;;12.00;99.90;;;;;;5053198;28;20642;-76
2021/03/20 09:03:18;;;;;;;15.15;13.60;;;12.00;99.90;;;;;;5054301;28;20207;-76
2021/03/20 09:05:47;;;;;;;13.98;12.43;;;12.30;99.90;;;;;;5039932;28;20195;-76
2021/03/20 09:08:23;;;;;;;13.52;12.23;;;12.10;99.90;;;;;;5042347;28;20219;-76
2021/03/20 09:11:01;;;;;;;16.00;13.27;;;12.40;99.90;;;;;;5045530;28;20215;-78
2021/03/20 09:13:35;;;;;;;14.05;12.52;;;12.20;99.90;;;;;;5050145;28;20241;-76
2021/03/20 09:16:07;;;;;;;14.32;12.15;;;12.00;99.90;;;;;;5049862;28;20206;-77
2021/03/20 09:18:34;;;;;;;14.65;11.88;;;12.10;99.90;;;;;;5050935;28;20266;-78
2021/03/20 09:21:06;;;;;;;15.07;11.45;;;12.00;99.90;;;;;;5051043;28;20250;-76
2021/03/20 09:23:37;;;;;;;13.48;12.13;;;12.00;99.90;;;;;;5050320;28;20314;-76
2021/03/20 09:26:06;;;;;;;13.93;12.00;;;11.70;99.90;;;;;;5052225;28;20260;-76
2021/03/20 09:29:05;;;;;;;12.20;11.00;;;11.40;99.90;;;;;;5048626;28;21005;-76
2021/03/20 09:31:44;;;;;;;12.50;11.30;;;11.40;99.90;;;;;;5043394;28;20256;-76
2021/03/20 09:34:28;;;;;;;11.40;10.20;;;11.40;99.90;;;;;;5049524;28;20651;-77
2021/03/20 09:36:54;;;;;;;12.68;11.38;;;11.30;99.90;;;;;;5051362;28;20212;-77
2021/03/20 09:39:44;;;;;;;12.50;11.13;;;10.50;99.90;;;;;;5052761;28;20295;-75
2021/03/20 09:42:35;;;;;;;13.40;11.87;;;9.70;99.90;;;;;;5045030;28;20216;-74
2021/03/20 09:45:05;;;;;;;12.67;11.33;;;8.80;99.90;;;;;;5050944;28;20203;-75
2021/03/20 09:47:48;;;;;;;14.20;11.20;;;8.50;99.90;;;;;;5051311;28;20650;-75
2021/03/20 09:50:32;;;;;;;14.03;11.87;;;8.30;99.90;;;;;;5049421;28;20196;-74
2021/03/20 09:53:22;;;;;;;11.90;10.70;;;8.10;99.90;;;;;;5050930;28;20748;-75
2021/03/20 09:55:52;;;;;;;13.07;11.67;;;8.00;99.90;;;;;;5051271;28;20720;-75
2021/03/20 09:58:36;;;;;;;14.90;11.73;;;7.80;99.90;;;;;;5052678;28;20235;-75
2021/03/20 10:01:21;;;;;;;13.43;11.33;;;8.00;99.90;;;;;;5042695;28;20210;-75
2021/03/20 10:04:13;;;;;;;13.33;11.00;;;8.00;99.90;;;;;;5053047;28;20202;-75
2021/03/20 10:06:41;;;;;;;10.27;9.07;;;8.20;99.90;;;;;;5051101;28;20206;-75
2021/03/20 10:09:23;;;;;;;9.63;8.63;;;8.30;99.90;;;;;;5052817;28;20294;-76
2021/03/20 10:12:18;;;;;;;10.13;8.00;;;8.70;99.90;;;;;;5053183;28;20218;-74
2021/03/20 10:15:15;;;;;;;12.07;9.10;;;8.70;99.90;;;;;;5036741;28;20199;-75
2021/03/20 10:18:20;;;;;;;11.37;8.93;;;8.30;99.90;;;;;;5034924;28;20198;-75
2021/03/20 10:20:56;;;;;;;15.37;9.70;;;7.90;99.90;;;;;;5037639;28;20199;-75
2021/03/20 10:23:38;;;;;;;11.97;8.63;;;8.10;99.90;;;;;;5038333;28;20224;-74
2021/03/20 10:26:12;;;;;;;10.90;8.33;;;7.80;99.90;;;;;;5037501;28;20196;-76
2021/03/20 10:28:44;;;;;;;8.03;7.30;;;8.00;99.90;;;;;;5037305;28;20283;-76
2021/03/20 10:31:13;;;;;;;8.77;7.40;;;8.10;99.90;;;;;;5038581;28;20204;-74
2021/03/20 10:33:42;;;;;;;8.87;7.10;;;8.10;99.90;;;;;;5037857;28;20204;-73
2021/03/20 10:36:18;;;;;;;8.30;6.47;;;8.30;99.90;;;;;;5037327;28;20226;-74
2021/03/20 10:38:47;;;;;;;7.17;6.23;;;8.50;99.90;;;;;;5037039;28;20246;-74
2021/03/20 10:41:20;;;;;;;7.43;6.27;;;8.40;99.90;;;;;;5038335;28;20286;-74
2021/03/20 10:43:50;;;;;;;6.83;6.13;;;8.00;99.90;;;;;;5039069;28;20188;-74
2021/03/20 10:46:18;;;;;;;10.03;6.47;;;8.10;99.90;;;;;;5041923;28;20304;-75
2021/03/20 10:48:45;;;;;;;10.50;6.93;;;7.80;99.90;;;;;;5041611;28;20207;-74
2021/03/20 10:51:14;;;;;;;6.27;5.47;;;7.90;99.90;;;;;;5041730;28;20207;-73
2021/03/20 10:53:44;;;;;;;6.10;5.33;;;8.00;99.90;;;;;;5041482;28;20214;-73
2021/03/20 10:56:26;;;;;;;9.07;5.87;;;8.10;99.90;;;;;;5042631;28;20208;-74
2021/03/20 10:58:53;;;;;;;6.57;5.60;;;8.00;99.90;;;;;;5043802;28;20201;-74
2021/03/20 11:01:30;;;;;;;9.47;6.30;;;8.00;99.90;;;;;;5040433;28;20563;-74
2021/03/20 11:03:56;;;;;;;6.13;5.30;;;8.10;99.90;;;;;;5040847;28;20668;-73
2021/03/20 11:06:24;;;;;;;7.23;5.40;;;8.10;99.90;;;;;;5041958;28;20389;-74
2021/03/20 11:09:05;;;;;;;5.40;4.90;;;8.00;99.90;;;;;;5040040;28;20203;-79
2021/03/20 11:11:35;;;;;;;6.13;4.73;;;8.00;99.90;;;;;;5040839;28;20192;-74
2021/03/20 11:14:05;;;;;;;5.73;4.77;;;8.10;99.90;;;;;;5040415;28;20663;-75
2021/03/20 11:16:32;;;;;;;6.23;5.10;;;8.00;99.90;;;;;;5043508;28;20204;-75
2021/03/20 11:19:06;;;;;;;7.07;5.10;;;8.00;99.90;;;;;;5054133;28;20219;-75
2021/03/20 11:21:34;;;;;;;6.83;5.40;;;8.00;99.90;;;;;;5054008;28;20209;-74
2021/03/20 11:24:03;;;;;;;6.57;5.93;;;8.10;99.90;;;;;;5066438;28;20207;-74
2021/03/20 11:26:37;;;;;;;6.37;5.07;;;8.10;99.90;;;;;;5057189;28;20662;-73
2021/03/20 11:29:06;;;;;;;6.77;5.03;;;8.10;99.90;;;;;;5054042;28;20202;-75
2021/03/20 11:31:51;;;;;;;7.70;5.57;;;8.10;99.90;;;;;;5053825;28;20195;-74
2021/03/20 11:34:23;;;;;;;8.03;5.80;;;8.20;99.90;;;;;;5053912;28;20195;-74
2021/03/20 11:36:50;;;;;;;7.10;5.17;;;8.20;99.90;;;;;;5053374;28;20201;-74
2021/03/20 11:39:17;;;;;;;6.23;5.27;;;8.10;99.90;;;;;;5054107;28;20272;-74
2021/03/20 11:41:44;;;;;;;6.93;5.33;;;8.20;99.90;;;;;;5055212;28;20678;-74
2021/03/20 11:44:22;;;;;;;8.83;5.00;;;8.10;99.90;;;;;;5055193;28;20200;-74
2021/03/20 11:46:52;;;;;;;5.13;4.63;;;8.30;99.90;;;;;;5055641;28;20605;-73
2021/03/20 11:49:25;;;;;;;5.37;4.40;;;8.20;99.90;;;;;;5055868;28;20207;-74
2021/03/20 11:51:52;;;;;;;5.50;4.80;;;8.40;99.90;;;;;;5055656;28;20195;-73
2021/03/20 11:54:31;;;;;;;5.87;4.47;;;8.20;99.90;;;;;;5055167;28;20294;-74
2021/03/20 11:57:02;;;;;;;5.07;4.37;;;8.20;99.90;;;;;;5046447;28;20316;-80
2021/03/20 11:59:39;;;;;;;5.43;4.70;;;8.40;99.90;;;;;;5035562;28;20196;-75
2021/03/20 12:02:07;;;;;;;6.33;4.43;;;8.50;99.90;;;;;;5038989;28;20293;-74
2021/03/20 12:04:34;;;;;;;4.90;4.47;;;8.50;99.90;;;;;;5039076;28;20200;-75
2021/03/20 12:07:29;;;;;;;6.43;4.50;;;8.50;99.90;;;;;;5039996;28;20638;-74
2021/03/20 12:09:56;;;;;;;5.73;3.90;;;8.60;99.90;;;;;;5003643;28;20333;-74
2021/03/20 12:12:47;;;;;;;4.33;3.37;;;8.60;99.90;;;;;;5040299;28;20209;-74
2021/03/20 12:15:24;;;;;;;4.27;3.60;;;8.60;99.90;;;;;;5040479;28;20196;-74
2021/03/20 12:17:51;;;;;;;4.60;3.40;;;8.60;99.90;;;;;;5040643;28;20210;-74
2021/03/20 12:20:34;;;;;;;4.80;4.00;;;8.70;99.90;;;;;;5039991;28;20246;-73
2021/03/20 12:23:13;;;;;;;6.73;3.67;;;8.80;99.90;;;;;;5038378;28;20357;-74
2021/03/20 12:25:51;;;;;;;5.70;3.63;;;8.60;99.90;;;;;;5039632;28;20204;-73
2021/03/20 12:28:32;;;;;;;5.57;4.10;;;8.60;99.90;;;;;;5039459;28;20195;-74
2021/03/20 12:31:29;;;;;;;4.07;3.67;;;8.50;99.90;;;;;;5040099;28;20204;-74
2021/03/20 12:33:59;;;;;;;4.60;3.93;;;8.60;99.90;;;;;;5038919;28;20192;-75
2021/03/20 12:36:29;;;;;;;6.23;4.40;;;8.90;99.90;;;;;;5039442;28;20251;-75
2021/03/20 12:38:56;;;;;;;6.40;4.07;;;8.70;99.90;;;;;;5041948;28;20227;-74
2021/03/20 12:41:25;;;;;;;7.13;4.13;;;8.80;99.90;;;;;;5039858;28;20211;-75
2021/03/20 12:44:14;;;;;;;7.97;5.18;;;9.00;99.90;;;;;;5040922;28;20230;-74
2021/03/20 12:46:43;;;;;;;6.27;4.70;;;9.00;99.90;;;;;;5039973;28;20580;-75
2021/03/20 12:49:15;;;;;;;5.13;4.43;;;8.70;99.90;;;;;;5039746;28;20273;-74
2021/03/20 12:51:41;;;;;;;6.05;4.55;;;8.90;99.90;;;;;;5039928;28;20651;-74
2021/03/20 12:54:08;;;;;;;5.93;4.43;;;8.90;99.90;;;;;;5039535;28;20205;-77
2021/03/20 12:56:34;;;;;;;6.23;4.13;;;8.90;99.90;;;;;;5040546;28;20210;-76
2021/03/20 12:59:03;;;;;;;8.33;4.70;;;9.00;99.90;;;;;;5039464;28;20237;-75
2021/03/20 13:01:29;;;;;;;4.93;4.10;;;8.80;99.90;;;;;;5038164;28;20217;-77
2021/03/20 13:03:56;;;;;;;5.07;4.57;;;8.90;99.90;;;;;;5039023;28;20253;-76
2021/03/20 13:06:23;;;;;;;5.63;4.20;;;8.90;99.90;;;;;;5037397;28;20264;-75
2021/03/20 13:08:49;;;;;;;4.28;3.78;;;8.80;99.90;;;;;;5038327;28;20217;-75
2021/03/20 13:11:25;;;;;;;4.68;4.18;;;9.00;99.90;;;;;;5038719;28;20200;-75
2021/03/20 13:13:51;;;;;;;5.07;3.97;;;9.00;99.90;;;;;;5039763;28;20211;-75
2021/03/20 13:16:18;;;;;;;5.03;4.13;;;9.10;99.90;;;;;;5038578;28;20883;-76